Time;durP1;ratioP1;P1;durP2;ratioP2;P2;SDS_P1;SDS_P2;PMS_P1;PMS_P2;Temp;Humidity;BMP_temperature;BMP_pressure;BME280_temperature;BME280_humidity;BME280_pressure;Samples;Min_cycle;Max_cycle;Signal;HPM_P1;HPM_P2
2021/05/02 00:00:34;;;;;;;;;;;23.30;54.10;;;;;;5134370;27;19907;-47
2021/05/02 00:03:00;;;;;;;;;;;23.20;54.00;;;;;;5133026;27;20508;-48
2021/05/02 00:05:27;;;;;;;;;;;23.20;54.00;;;;;;5129994;27;19952;-49
2021/05/02 00:07:53;;;;;;;;;;;23.20;54.00;;;;;;5131687;27;19908;-48
2021/05/02 00:10:19;;;;;;;;;;;23.20;53.80;;;;;;5128852;27;19923;-48
2021/05/02 00:12:45;;;;;;;;;;;23.20;53.90;;;;;;5129003;27;20321;-51
2021/05/02 00:15:12;;;;;;;;;;;23.20;53.70;;;;;;5129321;27;20207;-50
2021/05/02 00:17:39;;;;;;;;;;;23.10;53.80;;;;;;5129354;27;19915;-47
2021/05/02 00:20:05;;;;;;;;;;;23.10;53.70;;;;;;5136309;27;19904;-49
2021/05/02 00:22:31;;;;;;;;;;;23.10;53.80;;;;;;5134955;27;19910;-48
2021/05/02 00:24:57;;;;;;;;;;;23.10;54.00;;;;;;5129907;27;19919;-47
2021/05/02 00:27:23;;;;;;;;;;;23.10;54.10;;;;;;5140925;27;19908;-49
2021/05/02 00:29:49;;;;;;;;;;;23.10;54.10;;;;;;5127902;27;19930;-48
2021/05/02 00:32:15;;;;;;;;;;;23.10;54.20;;;;;;5115410;27;19911;-50
2021/05/02 00:34:41;;;;;;;;;;;23.10;54.20;;;;;;5131994;27;19908;-48
2021/05/02 00:37:06;;;;;;;;;;;23.10;54.20;;;;;;5131748;27;19922;-50
2021/05/02 00:39:35;;;;;;;;;;;23.10;54.30;;;;;;5131646;27;20592;-47
2021/05/02 00:42:03;;;;;;;;;;;23.00;54.20;;;;;;5127211;27;19911;-49
2021/05/02 00:44:29;;;;;;;;;;;23.00;54.10;;;;;;5130635;27;19911;-50
2021/05/02 00:47:14;;;;;;;;;;;23.00;54.20;;;;;;5132140;27;19903;-49
2021/05/02 00:49:58;;;;;;;;;;;23.00;54.20;;;;;;5123128;28;19904;-51
2021/05/02 00:52:25;;;;;;;;;;;23.00;54.40;;;;;;5132894;27;19983;-50
2021/05/02 00:54:51;;;;;;;;;;;23.00;55.10;;;;;;5138236;27;19903;-48
2021/05/02 00:57:25;;;;;;;;;;;23.00;54.40;;;;;;5120447;28;19938;-52
2021/05/02 01:00:01;;;;;;;;;;;22.90;54.40;;;;;;5137591;27;19908;-50
2021/05/02 01:02:27;;;;;;;;;;;22.90;54.60;;;;;;5129172;27;20367;-50
2021/05/02 01:04:53;;;;;;;;;;;22.90;54.60;;;;;;5137784;27;20015;-50
2021/05/02 01:07:22;;;;;;;;;;;22.90;55.30;;;;;;5116438;28;19907;-49
2021/05/02 01:09:48;;;;;;;;;;;22.80;54.60;;;;;;5129312;28;19943;-48
2021/05/02 01:12:17;;;;;;;;;;;22.80;54.60;;;;;;5108420;28;19949;-50
2021/05/02 01:14:46;;;;;;;;;;;22.80;54.70;;;;;;5115067;28;19942;-49
2021/05/02 01:17:13;;;;;;;;;;;22.80;54.60;;;;;;5135094;28;19919;-48
2021/05/02 01:19:39;;;;;;;;;;;22.80;54.70;;;;;;5125626;28;20376;-47
2021/05/02 01:22:10;;;;;;;;;;;22.80;54.70;;;;;;5127693;28;19957;-47
2021/05/02 01:24:36;;;;;;;;;;;22.80;54.70;;;;;;5133508;28;19943;-50
2021/05/02 01:27:02;;;;;;;;;;;22.80;54.70;;;;;;5131665;28;19911;-51
2021/05/02 01:29:28;;;;;;;;;;;22.80;55.40;;;;;;5116190;28;19998;-49
2021/05/02 01:31:53;;;;;;;;;;;22.70;54.80;;;;;;5116256;28;19911;-50
2021/05/02 01:34:19;;;;;;;;;;;22.70;54.90;;;;;;5134961;28;19922;-48
2021/05/02 01:36:45;;;;;;;;;;;22.70;55.00;;;;;;5131325;28;19918;-48
2021/05/02 01:39:11;;;;;;;;;;;22.70;54.80;;;;;;5104317;28;19911;-51
2021/05/02 01:41:37;;;;;;;;;;;22.70;54.90;;;;;;5148893;27;20662;-48
2021/05/02 01:44:03;;;;;;;;;;;22.70;54.70;;;;;;5133907;28;19980;-47
2021/05/02 01:46:33;;;;;;;;;;;22.60;54.20;;;;;;5134730;28;19990;-50
2021/05/02 01:48:59;;;;;;;;;;;22.60;54.30;;;;;;5131836;28;20451;-49
2021/05/02 01:51:25;;;;;;;;;;;22.60;54.50;;;;;;5131144;27;19903;-49
2021/05/02 01:53:51;;;;;;;;;;;22.60;54.40;;;;;;5118954;27;19907;-47
2021/05/02 01:56:17;;;;;;;;;;;22.60;54.60;;;;;;5136636;27;19911;-48
2021/05/02 01:58:43;;;;;;;;;;;22.60;54.50;;;;;;5130755;27;19918;-46
2021/05/02 02:01:16;;;;;;;;;;;22.50;54.60;;;;;;5135278;27;20010;-52
2021/05/02 02:03:42;;;;;;;;;;;22.50;54.70;;;;;;5136060;27;20550;-47
2021/05/02 02:06:08;;;;;;;;;;;22.50;54.80;;;;;;5133986;27;19975;-47
2021/05/02 02:08:34;;;;;;;;;;;22.50;54.60;;;;;;5119467;27;19964;-48
2021/05/02 02:11:00;;;;;;;;;;;22.40;54.40;;;;;;5137950;27;19980;-49
2021/05/02 02:13:26;;;;;;;;;;;22.40;54.70;;;;;;5119518;27;19915;-52
2021/05/02 02:15:52;;;;;;;;;;;22.40;54.40;;;;;;5135117;27;20028;-47
2021/05/02 02:18:18;;;;;;;;;;;22.40;54.40;;;;;;5136396;27;19937;-49
2021/05/02 02:20:49;;;;;;;;;;;22.40;54.40;;;;;;5135918;27;19960;-49
2021/05/02 02:23:17;;;;;;;;;;;22.40;54.30;;;;;;5131263;27;19911;-48
2021/05/02 02:25:44;;;;;;;;;;;22.40;54.20;;;;;;5130991;27;19908;-47
2021/05/02 02:28:10;;;;;;;;;;;22.30;54.10;;;;;;5138321;27;20381;-51
2021/05/02 02:30:36;;;;;;;;;;;22.30;54.10;;;;;;5133765;27;20020;-51
2021/05/02 02:33:02;;;;;;;;;;;22.30;54.10;;;;;;5123376;27;19903;-48
2021/05/02 02:35:28;;;;;;;;;;;22.30;54.10;;;;;;5139185;27;19957;-50
2021/05/02 02:37:55;;;;;;;;;;;22.30;54.10;;;;;;5117439;28;20010;-50
2021/05/02 02:40:21;;;;;;;;;;;22.30;54.20;;;;;;5135526;27;19914;-50
2021/05/02 02:42:47;;;;;;;;;;;22.20;54.10;;;;;;5131964;27;20319;-49
2021/05/02 02:45:13;;;;;;;;;;;22.20;54.10;;;;;;5137739;27;19908;-48
2021/05/02 02:47:42;;;;;;;;;;;22.20;54.20;;;;;;5115632;28;20002;-48
2021/05/02 02:50:09;;;;;;;;;;;22.20;54.20;;;;;;5133386;27;19907;-48
2021/05/02 02:52:55;;;;;;;;;;;22.20;54.20;;;;;;5134149;27;19907;-50
2021/05/02 02:55:21;;;;;;;;;;;22.20;54.20;;;;;;5130477;27;19931;-49
2021/05/02 02:58:00;;;;;;;;;;;22.10;54.30;;;;;;5135040;27;20537;-47
2021/05/02 03:00:29;;;;;;;;;;;22.10;54.30;;;;;;5138133;27;19903;-47
2021/05/02 03:03:02;;;;;;;;;;;22.10;54.40;;;;;;5137786;27;20002;-49
2021/05/02 03:05:27;;;;;;;;;;;22.10;54.40;;;;;;5136727;27;19907;-50
2021/05/02 03:07:53;;;;;;;;;;;22.10;54.50;;;;;;5134159;27;19907;-47
2021/05/02 03:10:19;;;;;;;;;;;22.00;54.40;;;;;;5132463;27;19966;-48
2021/05/02 03:12:45;;;;;;;;;;;22.00;54.40;;;;;;5137502;27;19915;-50
2021/05/02 03:15:11;;;;;;;;;;;22.00;54.60;;;;;;5115268;27;19923;-49
2021/05/02 03:17:38;;;;;;;;;;;21.90;54.50;;;;;;5118210;27;19922;-49
2021/05/02 03:20:11;;;;;;;;;;;22.00;54.60;;;;;;5135274;27;19907;-51
2021/05/02 03:22:49;;;;;;;;;;;21.90;54.60;;;;;;5134210;27;19908;-49
2021/05/02 03:25:16;;;;;;;;;;;21.90;54.60;;;;;;5137811;27;19914;-48
2021/05/02 03:27:55;;;;;;;;;;;21.90;54.70;;;;;;5134009;27;19911;-49
2021/05/02 03:30:21;;;;;;;;;;;21.90;54.70;;;;;;5114328;27;19946;-47
2021/05/02 03:32:48;;;;;;;;;;;21.80;54.60;;;;;;5133512;27;19998;-48
2021/05/02 03:35:15;;;;;;;;;;;21.80;54.70;;;;;;5134747;27;19903;-47
2021/05/02 03:37:43;;;;;;;;;;;21.80;54.70;;;;;;5133341;27;19916;-49
2021/05/02 03:40:09;;;;;;;;;;;21.80;54.70;;;;;;5117981;27;19975;-50
2021/05/02 03:42:35;;;;;;;;;;;21.80;54.80;;;;;;5113741;27;19904;-49
2021/05/02 03:45:02;;;;;;;;;;;21.70;54.70;;;;;;5134567;27;19915;-47
2021/05/02 03:47:28;;;;;;;;;;;21.70;54.80;;;;;;5136245;27;19925;-48
2021/05/02 03:49:53;;;;;;;;;;;21.70;54.80;;;;;;5136927;27;19911;-48
2021/05/02 03:52:19;;;;;;;;;;;21.70;54.70;;;;;;5133870;27;19907;-52
2021/05/02 03:54:45;;;;;;;;;;;21.70;54.80;;;;;;5136143;27;19982;-50
2021/05/02 03:57:11;;;;;;;;;;;21.70;54.80;;;;;;5139164;27;19915;-48
2021/05/02 03:59:37;;;;;;;;;;;21.60;54.90;;;;;;5135790;27;19908;-51
2021/05/02 04:02:03;;;;;;;;;;;21.70;54.90;;;;;;5136220;27;20311;-47
2021/05/02 04:04:33;;;;;;;;;;;21.70;54.90;;;;;;5127200;27;19967;-48
2021/05/02 04:07:03;;;;;;;;;;;21.60;54.90;;;;;;5134861;27;19907;-48
2021/05/02 04:09:30;;;;;;;;;;;21.60;55.00;;;;;;5136382;27;19915;-48
2021/05/02 04:11:56;;;;;;;;;;;21.60;55.00;;;;;;5133513;27;19971;-51
2021/05/02 04:14:22;;;;;;;;;;;21.60;55.10;;;;;;5121715;27;19989;-48
2021/05/02 04:16:57;;;;;;;;;;;21.50;55.10;;;;;;5131846;27;19911;-50
2021/05/02 04:19:23;;;;;;;;;;;21.50;55.10;;;;;;5130880;27;19922;-48
2021/05/02 04:21:49;;;;;;;;;;;21.50;55.20;;;;;;5138386;27;19910;-47
2021/05/02 04:24:15;;;;;;;;;;;21.50;55.20;;;;;;5132429;27;19974;-47
2021/05/02 04:26:42;;;;;;;;;;;21.40;55.30;;;;;;5136259;27;19903;-47
2021/05/02 04:29:07;;;;;;;;;;;21.40;55.20;;;;;;5111572;28;19975;-49
2021/05/02 04:31:33;;;;;;;;;;;21.40;55.20;;;;;;5131889;27;19908;-49
2021/05/02 04:33:59;;;;;;;;;;;21.40;55.30;;;;;;5138383;27;19904;-51
2021/05/02 04:36:25;;;;;;;;;;;21.40;55.50;;;;;;5134906;27;19930;-50
2021/05/02 04:38:51;;;;;;;;;;;21.40;55.30;;;;;;5131510;27;19907;-48
2021/05/02 04:41:17;;;;;;;;;;;21.40;55.40;;;;;;5132567;27;19974;-50
2021/05/02 04:43:43;;;;;;;;;;;21.30;55.50;;;;;;5135595;27;19908;-50
2021/05/02 04:46:11;;;;;;;;;;;21.30;55.40;;;;;;5132240;27;19907;-48
2021/05/02 04:48:38;;;;;;;;;;;21.30;55.40;;;;;;5134947;27;19915;-48
2021/05/02 04:51:04;;;;;;;;;;;21.30;55.50;;;;;;5105745;28;19950;-50
2021/05/02 04:53:31;;;;;;;;;;;21.30;55.50;;;;;;5137487;27;19908;-51
2021/05/02 04:55:57;;;;;;;;;;;21.20;55.50;;;;;;5131289;27;19951;-49
2021/05/02 04:58:23;;;;;;;;;;;21.20;55.60;;;;;;5131156;27;20017;-51
2021/05/02 05:00:49;;;;;;;;;;;21.20;55.60;;;;;;5127410;27;19932;-51
2021/05/02 05:03:16;;;;;;;;;;;21.20;55.70;;;;;;5138772;27;19986;-52
2021/05/02 05:05:42;;;;;;;;;;;21.20;55.70;;;;;;5135694;27;19964;-50
2021/05/02 05:08:08;;;;;;;;;;;21.10;55.80;;;;;;5128818;27;19908;-47
2021/05/02 05:10:33;;;;;;;;;;;21.10;55.80;;;;;;5128475;27;19947;-50
2021/05/02 05:12:59;;;;;;;;;;;21.10;55.70;;;;;;5133875;27;19924;-49
2021/05/02 05:15:25;;;;;;;;;;;21.10;55.70;;;;;;5127061;28;19908;-48
2021/05/02 05:17:51;;;;;;;;;;;21.10;55.80;;;;;;5134326;28;19919;-48
2021/05/02 05:20:17;;;;;;;;;;;21.00;55.90;;;;;;5131999;28;19912;-48
2021/05/02 05:22:43;;;;;;;;;;;21.00;55.80;;;;;;5132387;28;19929;-47
2021/05/02 05:25:09;;;;;;;;;;;21.00;55.90;;;;;;5127045;28;19907;-49
2021/05/02 05:27:35;;;;;;;;;;;21.00;55.90;;;;;;5134341;27;19911;-48
2021/05/02 05:30:01;;;;;;;;;;;21.00;56.00;;;;;;5126780;27;19904;-51
2021/05/02 05:32:27;;;;;;;;;;;21.00;56.00;;;;;;5135877;27;19908;-49
2021/05/02 05:34:53;;;;;;;;;;;21.00;56.00;;;;;;5138389;27;20638;-49
2021/05/02 05:37:19;;;;;;;;;;;20.90;56.00;;;;;;5135848;27;19914;-51
2021/05/02 05:39:44;;;;;;;;;;;20.90;56.20;;;;;;5138836;27;19907;-51
2021/05/02 05:42:10;;;;;;;;;;;20.90;56.10;;;;;;5136309;27;20317;-49
2021/05/02 05:44:36;;;;;;;;;;;20.90;56.10;;;;;;5138406;27;19918;-48
2021/05/02 05:47:02;;;;;;;;;;;20.90;56.10;;;;;;5134777;27;19914;-50
2021/05/02 05:49:28;;;;;;;;;;;20.80;56.20;;;;;;5137483;27;19907;-49
2021/05/02 05:51:54;;;;;;;;;;;20.80;56.20;;;;;;5138217;27;19911;-48
2021/05/02 05:54:20;;;;;;;;;;;20.80;56.20;;;;;;5135120;27;20351;-49
2021/05/02 05:56:46;;;;;;;;;;;20.80;56.10;;;;;;5130712;27;20656;-46
2021/05/02 05:59:12;;;;;;;;;;;20.80;56.40;;;;;;5138984;27;19911;-48
2021/05/02 06:01:39;;;;;;;;;;;20.80;56.30;;;;;;5139037;27;19942;-51
2021/05/02 06:04:05;;;;;;;;;;;20.70;56.30;;;;;;5134895;27;19923;-48
2021/05/02 06:06:33;;;;;;;;;;;20.70;56.30;;;;;;5137901;27;19907;-50
2021/05/02 06:09:00;;;;;;;;;;;20.70;56.40;;;;;;5135645;27;19907;-51
2021/05/02 06:11:28;;;;;;;;;;;20.70;56.40;;;;;;5132222;27;19955;-53
2021/05/02 06:13:54;;;;;;;;;;;20.70;56.30;;;;;;5144138;27;19914;-51
2021/05/02 06:16:20;;;;;;;;;;;20.70;56.40;;;;;;5134827;27;19903;-50
2021/05/02 06:18:45;;;;;;;;;;;20.60;56.60;;;;;;5138934;27;19903;-48
2021/05/02 06:21:11;;;;;;;;;;;20.60;56.50;;;;;;5134655;27;20374;-51
2021/05/02 06:23:37;;;;;;;;;;;20.60;56.40;;;;;;5137584;27;19921;-51
2021/05/02 06:26:03;;;;;;;;;;;20.60;56.50;;;;;;5139002;27;19911;-49
2021/05/02 06:28:29;;;;;;;;;;;20.60;56.70;;;;;;5137738;27;19904;-50
2021/05/02 06:30:55;;;;;;;;;;;20.60;56.70;;;;;;5132370;27;19910;-47
2021/05/02 06:33:23;;;;;;;;;;;20.50;56.60;;;;;;5133365;27;19979;-51
2021/05/02 06:35:49;;;;;;;;;;;20.50;56.60;;;;;;5133729;27;19908;-48
2021/05/02 06:38:15;;;;;;;;;;;20.50;56.60;;;;;;5137069;27;19962;-51
2021/05/02 06:40:40;;;;;;;;;;;20.50;56.70;;;;;;5133113;27;19907;-52
2021/05/02 06:43:08;;;;;;;;;;;20.50;56.70;;;;;;5133845;27;19907;-49
2021/05/02 06:45:34;;;;;;;;;;;20.50;56.70;;;;;;5128977;27;19997;-50
2021/05/02 06:48:00;;;;;;;;;;;20.40;56.70;;;;;;5130410;27;19907;-50
2021/05/02 06:50:25;;;;;;;;;;;20.40;56.80;;;;;;5137338;27;19903;-51
2021/05/02 06:52:51;;;;;;;;;;;20.40;56.70;;;;;;5137580;27;19916;-53
2021/05/02 06:55:17;;;;;;;;;;;20.40;56.80;;;;;;5134775;27;19908;-49
2021/05/02 06:57:43;;;;;;;;;;;20.40;56.80;;;;;;5128422;27;19987;-51
2021/05/02 07:00:09;;;;;;;;;;;20.40;56.90;;;;;;5135368;27;19971;-50
2021/05/02 07:02:35;;;;;;;;;;;20.40;56.80;;;;;;5130406;27;19908;-51
2021/05/02 07:05:01;;;;;;;;;;;20.30;56.80;;;;;;5132155;27;19910;-51
2021/05/02 07:07:28;;;;;;;;;;;20.30;56.90;;;;;;5137562;27;19918;-49
2021/05/02 07:09:54;;;;;;;;;;;20.30;56.90;;;;;;5137403;27;19923;-51
2021/05/02 07:12:21;;;;;;;;;;;20.30;56.90;;;;;;5133650;27;19939;-49
2021/05/02 07:14:46;;;;;;;;;;;20.30;57.10;;;;;;5130183;27;19914;-48
2021/05/02 07:17:13;;;;;;;;;;;20.30;56.90;;;;;;5132817;27;19915;-49
2021/05/02 07:19:39;;;;;;;;;;;20.20;57.00;;;;;;5110578;27;19979;-51
2021/05/02 07:22:06;;;;;;;;;;;20.20;57.00;;;;;;5114889;27;19956;-49
2021/05/02 07:24:32;;;;;;;;;;;20.20;56.90;;;;;;5129252;27;19911;-51
2021/05/02 07:26:58;;;;;;;;;;;20.20;57.10;;;;;;5138087;27;20056;-48
2021/05/02 07:29:24;;;;;;;;;;;20.20;57.10;;;;;;5134178;27;19933;-51
2021/05/02 07:31:50;;;;;;;;;;;20.10;57.10;;;;;;5138899;27;19974;-49
2021/05/02 07:34:16;;;;;;;;;;;20.10;57.10;;;;;;5135003;27;19903;-50
2021/05/02 07:36:42;;;;;;;;;;;20.10;57.30;;;;;;5136914;27;19991;-49
2021/05/02 07:39:08;;;;;;;;;;;20.10;57.20;;;;;;5137283;27;19908;-48
2021/05/02 07:41:34;;;;;;;;;;;20.10;57.20;;;;;;5134455;27;20339;-48
2021/05/02 07:44:00;;;;;;;;;;;20.10;57.10;;;;;;5138816;27;19929;-49
2021/05/02 07:46:26;;;;;;;;;;;20.10;57.80;;;;;;5134348;27;19904;-50
2021/05/02 07:48:52;;;;;;;;;;;20.10;57.20;;;;;;5134215;27;19907;-51
2021/05/02 07:51:18;;;;;;;;;;;20.00;57.20;;;;;;5134039;27;19925;-53
2021/05/02 07:53:44;;;;;;;;;;;20.00;57.20;;;;;;5134197;27;19971;-53
2021/05/02 07:56:09;;;;;;;;;;;20.00;57.30;;;;;;5135564;27;19903;-50
2021/05/02 07:58:35;;;;;;;;;;;20.00;57.30;;;;;;5134162;27;19907;-52
2021/05/02 08:01:01;;;;;;;;;;;20.00;57.30;;;;;;5112699;27;20003;-49
2021/05/02 08:03:27;;;;;;;;;;;20.00;57.30;;;;;;5133869;27;19922;-50
2021/05/02 08:05:53;;;;;;;;;;;20.00;57.30;;;;;;5134339;27;19907;-52
2021/05/02 08:08:19;;;;;;;;;;;19.90;57.30;;;;;;5136504;27;19907;-49
2021/05/02 08:10:45;;;;;;;;;;;19.90;57.30;;;;;;5129022;27;19920;-48
2021/05/02 08:13:11;;;;;;;;;;;19.90;57.40;;;;;;5135644;27;19953;-51
2021/05/02 08:15:37;;;;;;;;;;;19.90;57.40;;;;;;5118062;27;20394;-48
2021/05/02 08:18:03;;;;;;;;;;;19.90;57.30;;;;;;5130140;27;20356;-49
2021/05/02 08:20:29;;;;;;;;;;;19.80;57.40;;;;;;5133582;27;19978;-50
2021/05/02 08:22:55;;;;;;;;;;;19.80;57.50;;;;;;5139113;27;20010;-49
2021/05/02 08:25:21;;;;;;;;;;;19.80;57.40;;;;;;5132421;27;19907;-50
2021/05/02 08:27:48;;;;;;;;;;;19.80;57.50;;;;;;5135024;27;19907;-51
2021/05/02 08:30:13;;;;;;;;;;;19.80;58.00;;;;;;5132687;27;19912;-50
2021/05/02 08:32:39;;;;;;;;;;;19.80;57.50;;;;;;5130657;27;19904;-47
2021/05/02 08:35:06;;;;;;;;;;;19.80;57.50;;;;;;5135970;27;19904;-48
2021/05/02 08:37:32;;;;;;;;;;;19.80;57.50;;;;;;5131995;27;19922;-49
2021/05/02 08:39:58;;;;;;;;;;;19.70;57.50;;;;;;5134075;27;19910;-48
2021/05/02 08:42:23;;;;;;;;;;;19.70;57.50;;;;;;5126687;27;19990;-50
2021/05/02 08:44:50;;;;;;;;;;;19.70;57.60;;;;;;5136214;27;19986;-51
2021/05/02 08:47:16;;;;;;;;;;;19.70;57.50;;;;;;5118356;27;19903;-51
2021/05/02 08:49:42;;;;;;;;;;;19.70;57.50;;;;;;5132695;27;19942;-50
2021/05/02 08:52:08;;;;;;;;;;;19.70;57.50;;;;;;5132180;27;19986;-48
2021/05/02 08:54:34;;;;;;;;;;;19.70;57.50;;;;;;5115871;28;19904;-49
2021/05/02 08:57:00;;;;;;;;;;;19.60;57.60;;;;;;5133391;27;19915;-48
2021/05/02 08:59:26;;;;;;;;;;;19.60;57.60;;;;;;5131705;27;19929;-52
2021/05/02 09:01:55;;;;;;;;;;;19.60;57.70;;;;;;5135242;27;19912;-48
2021/05/02 09:04:21;;;;;;;;;;;19.60;57.70;;;;;;5131414;27;19928;-50
2021/05/02 09:06:47;;;;;;;;;;;19.60;57.60;;;;;;5131637;27;19935;-49
2021/05/02 09:09:13;;;;;;;;;;;19.60;57.60;;;;;;5131902;27;19907;-48
2021/05/02 09:11:40;;;;;;;;;;;19.60;57.80;;;;;;5134286;27;19915;-51
2021/05/02 09:14:08;;;;;;;;;;;19.60;57.80;;;;;;5131167;27;19907;-50
2021/05/02 09:16:44;;;;;;;;;;;19.60;57.60;;;;;;5116682;28;19911;-50
2021/05/02 09:19:09;;;;;;;;;;;19.50;57.70;;;;;;5127467;28;19907;-52
2021/05/02 09:21:35;;;;;;;;;;;19.50;57.70;;;;;;5137601;28;20011;-51
2021/05/02 09:24:06;;;;;;;;;;;19.50;57.70;;;;;;5133318;28;19922;-52
2021/05/02 09:26:32;;;;;;;;;;;19.50;57.80;;;;;;5134392;28;19926;-50
2021/05/02 09:28:59;;;;;;;;;;;19.50;57.80;;;;;;5130391;28;19979;-52
2021/05/02 09:31:27;;;;;;;;;;;19.50;57.80;;;;;;5133385;28;19914;-52
2021/05/02 09:33:54;;;;;;;;;;;19.50;57.80;;;;;;5130624;28;19938;-50
2021/05/02 09:36:20;;;;;;;;;;;19.50;57.80;;;;;;5132996;28;19915;-50
2021/05/02 09:38:46;;;;;;;;;;;19.50;57.90;;;;;;5131558;28;19908;-51
2021/05/02 09:41:13;;;;;;;;;;;19.50;57.90;;;;;;5138963;28;19911;-48
2021/05/02 09:43:46;;;;;;;;;;;19.40;57.90;;;;;;5135349;28;19911;-48
2021/05/02 09:49:11;;;;;;;;;;;19.40;57.80;;;;;;5110767;28;19910;-52
2021/05/02 09:51:37;;;;;;;;;;;19.40;57.90;;;;;;5126861;28;19946;-50
2021/05/02 09:54:10;;;;;;;;;;;19.40;57.90;;;;;;5133217;28;19955;-48
2021/05/02 09:56:39;;;;;;;;;;;19.40;57.90;;;;;;5127601;28;20001;-49
2021/05/02 09:59:05;;;;;;;;;;;19.40;57.90;;;;;;5133313;28;19911;-50
2021/05/02 10:01:31;;;;;;;;;;;19.30;57.80;;;;;;5131697;28;19914;-48
2021/05/02 10:04:00;;;;;;;;;;;19.40;57.90;;;;;;5134323;28;19994;-51
2021/05/02 10:06:30;;;;;;;;;;;19.30;57.90;;;;;;5120232;28;19908;-50
2021/05/02 10:08:57;;;;;;;;;;;19.30;57.90;;;;;;5133794;28;19908;-47
2021/05/02 10:11:23;;;;;;;;;;;19.30;57.90;;;;;;5107765;28;19931;-50
2021/05/02 10:13:49;;;;;;;;;;;19.30;57.90;;;;;;5130269;27;19914;-50
2021/05/02 10:16:15;;;;;;;;;;;19.30;57.90;;;;;;5138817;27;19908;-50
2021/05/02 10:18:41;;;;;;;;;;;19.30;58.00;;;;;;5136512;27;19943;-51
2021/05/02 10:21:09;;;;;;;;;;;19.30;58.10;;;;;;5142083;27;19908;-48
2021/05/02 10:23:35;;;;;;;;;;;19.30;58.50;;;;;;5136367;27;19976;-49
2021/05/02 10:26:02;;;;;;;;;;;19.30;58.00;;;;;;5130094;27;19929;-52
2021/05/02 10:28:29;;;;;;;;;;;19.30;58.00;;;;;;5130466;27;19907;-50
2021/05/02 10:30:58;;;;;;;;;;;19.30;58.00;;;;;;5120033;27;19994;-52
2021/05/02 10:33:34;;;;;;;;;;;19.30;58.10;;;;;;5113746;27;19911;-49
2021/05/02 10:36:01;;;;;;;;;;;19.20;58.10;;;;;;5128979;27;19911;-49
2021/05/02 10:38:45;;;;;;;;;;;19.20;58.00;;;;;;5134828;27;20500;-53
2021/05/02 10:41:21;;;;;;;;;;;19.20;58.10;;;;;;5129835;27;19907;-52
2021/05/02 10:43:47;;;;;;;;;;;19.20;58.30;;;;;;5137068;27;19914;-51
2021/05/02 10:46:31;;;;;;;;;;;19.20;58.20;;;;;;5137193;27;19903;-50
2021/05/02 10:48:57;;;;;;;;;;;19.20;58.10;;;;;;5133500;27;19910;-53
2021/05/02 10:51:23;;;;;;;;;;;19.20;58.20;;;;;;5138575;27;19931;-51
2021/05/02 10:54:02;;;;;;;;;;;19.20;58.20;;;;;;5115533;27;20621;-52
2021/05/02 10:56:45;;;;;;;;;;;19.10;58.20;;;;;;5138113;27;19908;-50
2021/05/02 10:59:11;;;;;;;;;;;19.10;58.20;;;;;;5131055;27;19907;-49
2021/05/02 11:01:37;;;;;;;;;;;19.10;58.20;;;;;;5134045;27;19911;-47
2021/05/02 11:04:03;;;;;;;;;;;19.10;58.10;;;;;;5137356;27;19911;-48
2021/05/02 11:06:38;;;;;;;;;;;19.10;58.20;;;;;;5141514;27;20456;-50
2021/05/02 11:09:08;;;;;;;;;;;19.10;58.20;;;;;;5121289;28;19911;-48
2021/05/02 11:11:38;;;;;;;;;;;19.10;58.30;;;;;;5137517;27;19926;-51
2021/05/02 11:14:07;;;;;;;;;;;19.10;58.20;;;;;;5113256;27;19970;-49
2021/05/02 11:16:36;;;;;;;;;;;19.10;58.20;;;;;;5132503;27;19912;-51
2021/05/02 11:19:02;;;;;;;;;;;19.10;58.20;;;;;;5138387;27;19919;-50
2021/05/02 11:21:46;;;;;;;;;;;19.10;58.30;;;;;;5135986;27;19962;-50
2021/05/02 11:24:16;;;;;;;;;;;19.10;58.30;;;;;;5128581;27;19951;-51
2021/05/02 11:27:19;;;;;;;;;;;19.10;58.40;;;;;;5131797;27;19907;-48
2021/05/02 11:29:51;;;;;;;;;;;19.00;58.30;;;;;;5130193;27;19916;-51
2021/05/02 11:32:27;;;;;;;;;;;19.00;58.20;;;;;;5136990;27;19907;-48
2021/05/02 11:34:54;;;;;;;;;;;19.00;58.30;;;;;;5135592;27;19908;-52
2021/05/02 11:37:38;;;;;;;;;;;19.00;58.40;;;;;;5132560;27;19915;-52
2021/05/02 11:40:27;;;;;;;;;;;19.00;58.40;;;;;;5136584;27;19975;-51
2021/05/02 11:43:11;;;;;;;;;;;19.00;58.30;;;;;;5122177;27;19939;-51
2021/05/02 11:45:55;;;;;;;;;;;19.00;58.40;;;;;;5138742;27;19908;-51
2021/05/02 11:48:28;;;;;;;;;;;19.00;58.40;;;;;;5129950;27;19971;-50
2021/05/02 11:50:57;;;;;;;;;;;19.00;58.40;;;;;;5132646;27;19919;-49
2021/05/02 11:53:33;;;;;;;;;;;19.00;58.40;;;;;;5133034;27;19919;-52
2021/05/02 11:55:58;;;;;;;;;;;19.00;58.50;;;;;;5132113;27;19908;-49
2021/05/02 11:58:24;;;;;;;;;;;19.00;58.40;;;;;;5131584;27;19922;-49
2021/05/02 12:00:51;;;;;;;;;;;19.00;59.10;;;;;;5118528;28;19904;-48
2021/05/02 12:03:37;;;;;;;;;;;19.00;58.50;;;;;;5128498;27;19928;-52
2021/05/02 12:06:03;;;;;;;;;;;18.90;58.30;;;;;;5133022;27;19932;-51
2021/05/02 12:08:30;;;;;;;;;;;18.90;58.30;;;;;;5138498;27;19973;-48
2021/05/02 12:10:57;;;;;;;;;;;18.90;58.30;;;;;;5128617;27;19919;-51
2021/05/02 12:13:29;;;;;;;;;;;18.90;58.30;;;;;;5132868;27;20014;-48
2021/05/02 12:16:01;;;;;;;;;;;18.90;58.40;;;;;;5132022;27;19907;-50
2021/05/02 12:18:43;;;;;;;;;;;18.90;58.40;;;;;;5132916;27;19970;-51
2021/05/02 12:21:24;;;;;;;;;;;18.90;58.40;;;;;;5127347;27;19911;-51
2021/05/02 12:23:50;;;;;;;;;;;18.90;58.50;;;;;;5136249;27;19930;-50
2021/05/02 12:26:17;;;;;;;;;;;18.90;58.60;;;;;;5131390;27;20380;-51
2021/05/02 12:28:43;;;;;;;;;;;18.90;58.50;;;;;;5129093;27;19911;-47
2021/05/02 12:31:15;;;;;;;;;;;18.90;59.10;;;;;;5135666;27;20379;-52
2021/05/02 12:33:41;;;;;;;;;;;18.90;58.50;;;;;;5112021;28;20457;-51
2021/05/02 12:36:11;;;;;;;;;;;18.90;58.50;;;;;;5135641;27;19964;-51
2021/05/02 12:38:37;;;;;;;;;;;18.90;58.50;;;;;;5116561;27;20617;-50
2021/05/02 12:41:03;;;;;;;;;;;18.90;58.50;;;;;;5128659;27;19918;-50
2021/05/02 12:43:29;;;;;;;;;;;18.90;58.40;;;;;;5131636;27;19914;-49
2021/05/02 12:45:55;;;;;;;;;;;18.90;58.50;;;;;;5130609;27;19908;-50
2021/05/02 12:48:24;;;;;;;;;;;18.90;58.50;;;;;;5129306;27;19911;-52
2021/05/02 12:50:51;;;;;;;;;;;18.90;58.50;;;;;;5127368;28;19904;-51
2021/05/02 12:53:17;;;;;;;;;;;18.90;58.50;;;;;;5113343;27;19908;-49
2021/05/02 12:55:55;;;;;;;;;;;18.90;58.50;;;;;;5131344;27;19958;-51
2021/05/02 12:58:38;;;;;;;;;;;18.90;58.50;;;;;;5133253;27;19922;-50
2021/05/02 13:01:16;;;;;;;;;;;18.90;58.50;;;;;;5135269;27;19928;-49
2021/05/02 13:03:52;;;;;;;;;;;18.90;58.50;;;;;;5128340;27;19908;-48
2021/05/02 13:06:18;;;;;;;;;;;18.90;58.40;;;;;;5133005;27;19998;-49
2021/05/02 13:09:02;;;;;;;;;;;18.90;58.70;;;;;;5139125;27;19911;-48
2021/05/02 13:11:28;;;;;;;;;;;18.90;58.70;;;;;;5135685;27;19919;-49
2021/05/02 13:14:12;;;;;;;;;;;18.90;58.50;;;;;;5133801;27;19914;-47
2021/05/02 13:16:45;;;;;;;;;;;18.90;58.50;;;;;;5130618;27;19995;-49
2021/05/02 13:19:24;;;;;;;;;;;18.90;58.50;;;;;;5135533;28;20445;-47
2021/05/02 13:21:50;;;;;;;;;;;18.90;58.50;;;;;;5128804;28;19975;-49
2021/05/02 13:24:16;;;;;;;;;;;18.90;58.60;;;;;;5135587;28;19925;-49
2021/05/02 13:26:42;;;;;;;;;;;18.90;58.60;;;;;;5131498;28;19903;-50
2021/05/02 13:29:12;;;;;;;;;;;18.90;58.50;;;;;;5133454;28;19922;-50
2021/05/02 13:31:45;;;;;;;;;;;18.90;58.60;;;;;;5132048;28;19913;-47
2021/05/02 13:34:11;;;;;;;;;;;18.90;58.70;;;;;;5134085;28;19911;-51
2021/05/02 13:36:37;;;;;;;;;;;18.90;58.70;;;;;;5134289;28;19970;-48
2021/05/02 13:39:04;;;;;;;;;;;18.90;58.50;;;;;;5133432;28;19958;-48
2021/05/02 13:41:29;;;;;;;;;;;18.90;58.40;;;;;;5132490;28;19935;-48
2021/05/02 13:44:05;;;;;;;;;;;18.90;58.40;;;;;;5131023;28;19907;-50
2021/05/02 13:46:31;;;;;;;;;;;18.90;58.40;;;;;;5129686;28;19908;-53
2021/05/02 13:48:57;;;;;;;;;;;18.90;58.40;;;;;;5133395;27;20018;-50
2021/05/02 13:51:23;;;;;;;;;;;18.90;58.40;;;;;;5134547;27;19911;-51
2021/05/02 13:53:50;;;;;;;;;;;19.00;58.40;;;;;;5135184;27;20416;-48
2021/05/02 13:56:17;;;;;;;;;;;19.00;58.40;;;;;;5131787;27;19914;-50
2021/05/02 13:58:44;;;;;;;;;;;19.00;58.40;;;;;;5132781;27;19922;-52
2021/05/02 14:01:10;;;;;;;;;;;19.00;58.40;;;;;;5141026;27;19931;-50
2021/05/02 14:03:36;;;;;;;;;;;19.00;58.40;;;;;;5134890;27;19914;-51
2021/05/02 14:06:01;;;;;;;;;;;19.00;58.40;;;;;;5138733;27;19974;-49
2021/05/02 14:08:27;;;;;;;;;;;19.00;58.40;;;;;;5134603;27;19907;-51
2021/05/02 14:10:53;;;;;;;;;;;19.10;58.50;;;;;;5138876;27;20203;-49
2021/05/02 14:13:19;;;;;;;;;;;19.10;58.50;;;;;;5108870;28;19930;-50
2021/05/02 14:15:48;;;;;;;;;;;19.10;58.50;;;;;;5141318;27;19976;-52
2021/05/02 14:18:14;;;;;;;;;;;19.10;58.60;;;;;;5137306;27;19915;-49
2021/05/02 14:20:40;;;;;;;;;;;19.10;58.60;;;;;;5134712;27;19910;-49
2021/05/02 14:23:06;;;;;;;;;;;19.10;58.60;;;;;;5135732;27;19903;-51